createdAt,value
2024-04-25T00:00:31.567Z,5.80
2024-04-25T00:02:58.472Z,5.80
2024-04-25T00:05:25.409Z,5.70
2024-04-25T00:07:52.225Z,5.70
2024-04-25T00:10:19.036Z,5.70
2024-04-25T00:12:45.822Z,5.70
2024-04-25T00:15:12.672Z,5.70
2024-04-25T00:17:39.604Z,5.70
2024-04-25T00:20:07.069Z,5.70
2024-04-25T00:22:33.845Z,5.70
2024-04-25T00:25:00.737Z,5.70
2024-04-25T00:27:27.784Z,5.70
2024-04-25T00:29:55.693Z,5.70
2024-04-25T00:32:22.486Z,5.60
2024-04-25T00:34:49.407Z,5.60
2024-04-25T00:37:16.506Z,5.60
2024-04-25T00:39:43.748Z,5.60
2024-04-25T00:42:21.451Z,5.50
2024-04-25T00:44:49.296Z,5.50
2024-04-25T00:47:19.924Z,5.50
2024-04-25T00:49:48.496Z,5.50
2024-04-25T00:52:21.403Z,5.50
2024-04-25T00:54:48.766Z,5.50
2024-04-25T00:57:16.791Z,5.50
2024-04-25T00:59:47.246Z,5.50
2024-04-25T01:02:15.721Z,5.50
2024-04-25T01:04:44.540Z,5.40
2024-04-25T01:07:11.408Z,5.40
2024-04-25T01:09:38.198Z,5.40
2024-04-25T01:12:06.068Z,5.40
2024-04-25T01:14:33.734Z,5.40
2024-04-25T01:17:00.739Z,5.50
2024-04-25T01:19:27.604Z,5.40
2024-04-25T01:21:54.634Z,5.40
2024-04-25T01:24:30.703Z,5.50
2024-04-25T01:26:58.196Z,5.40
2024-04-25T01:29:26.673Z,5.50
2024-04-25T01:31:54.180Z,5.50
2024-04-25T01:34:21.827Z,5.60
2024-04-25T01:36:48.587Z,5.50
2024-04-25T01:39:15.350Z,5.50
2024-04-25T01:41:42.351Z,5.50
2024-04-25T01:44:09.276Z,5.40
2024-04-25T01:46:36.781Z,5.40
2024-04-25T01:49:03.601Z,5.40
2024-04-25T01:51:30.525Z,5.50
2024-04-25T01:53:57.327Z,5.50
2024-04-25T01:56:24.431Z,5.50
2024-04-25T01:58:54.197Z,5.40
2024-04-25T02:01:21.280Z,5.50
2024-04-25T02:03:48.108Z,5.50
2024-04-25T02:06:14.958Z,5.50
2024-04-25T02:08:41.733Z,5.50
2024-04-25T02:11:11.465Z,5.50
2024-04-25T02:13:38.289Z,5.50
2024-04-25T02:16:06.380Z,5.50
2024-04-25T02:18:33.211Z,5.50
2024-04-25T02:21:18.950Z,5.40
2024-04-25T02:24:04.307Z,5.40
2024-04-25T02:26:31.126Z,5.30
2024-04-25T02:28:58.061Z,5.40
2024-04-25T02:31:32.390Z,5.40
2024-04-25T02:33:59.332Z,5.40
2024-04-25T02:36:26.368Z,5.30
2024-04-25T02:38:53.100Z,5.30
2024-04-25T02:41:19.917Z,5.30
2024-04-25T02:43:46.703Z,5.30
2024-04-25T02:46:13.578Z,5.40
2024-04-25T02:48:40.492Z,5.40
2024-04-25T02:51:07.342Z,5.40
2024-04-25T02:53:34.713Z,5.50
2024-04-25T02:56:01.646Z,5.50
2024-04-25T02:58:28.482Z,5.50
2024-04-25T03:01:01.974Z,5.50
2024-04-25T03:03:28.978Z,5.40
2024-04-25T03:05:56.030Z,5.40
2024-04-25T03:08:22.827Z,5.50
2024-04-25T03:10:49.624Z,5.40
2024-04-25T03:13:16.432Z,5.50
2024-04-25T03:15:44.006Z,5.40
2024-04-25T03:18:10.953Z,5.40
2024-04-25T03:20:37.983Z,5.40
2024-04-25T03:23:05.201Z,5.40
2024-04-25T03:25:32.085Z,5.40
2024-04-25T03:27:59.063Z,5.40
2024-04-25T03:30:25.834Z,5.40
2024-04-25T03:32:52.902Z,5.40
2024-04-25T03:35:19.798Z,5.40
2024-04-25T03:37:46.720Z,5.40
2024-04-25T03:40:13.543Z,5.40
2024-04-25T03:42:40.401Z,5.40
2024-04-25T03:45:09.644Z,5.40
2024-04-25T03:47:36.669Z,5.40
2024-04-25T03:50:03.521Z,5.40
2024-04-25T03:52:30.299Z,5.40
2024-04-25T03:54:57.164Z,5.40
2024-04-25T03:57:23.954Z,5.40
2024-04-25T03:59:50.713Z,5.40
2024-04-25T04:02:17.551Z,5.40
2024-04-25T04:04:44.423Z,5.40
2024-04-25T04:07:11.361Z,5.40
2024-04-25T04:09:38.484Z,5.40
2024-04-25T04:12:05.611Z,5.40
2024-04-25T04:14:32.583Z,5.40
2024-04-25T04:16:59.621Z,5.50
2024-04-25T04:19:26.531Z,5.40
2024-04-25T04:21:54.299Z,5.40
2024-04-25T04:24:21.125Z,5.30
2024-04-25T04:26:47.999Z,5.30
2024-04-25T04:29:14.891Z,5.30
2024-04-25T04:31:41.924Z,5.30
2024-04-25T04:34:08.962Z,5.30
2024-04-25T04:36:35.942Z,5.20
2024-04-25T04:39:03.853Z,5.20
2024-04-25T04:41:30.844Z,5.20
2024-04-25T04:43:59.402Z,5.20
2024-04-25T04:46:26.191Z,5.20
2024-04-25T04:48:53.102Z,5.20
2024-04-25T04:51:20.236Z,5.20
2024-04-25T04:53:47.902Z,5.20
2024-04-25T04:56:14.936Z,5.30
2024-04-25T04:58:42.068Z,5.20
2024-04-25T05:01:10.056Z,5.20
2024-04-25T05:03:37.065Z,5.20
2024-04-25T05:06:04.530Z,5.30
2024-04-25T05:08:32.856Z,5.30
2024-04-25T05:11:00.901Z,5.30
2024-04-25T05:13:27.736Z,5.30
2024-04-25T05:15:54.818Z,5.30
2024-04-25T05:18:21.656Z,5.30
2024-04-25T05:20:48.525Z,5.30
2024-04-25T05:23:16.268Z,5.30
2024-04-25T05:25:43.132Z,5.30
2024-04-25T05:28:09.886Z,5.30
2024-04-25T05:30:36.708Z,5.40
2024-04-25T05:33:04.754Z,5.30
2024-04-25T05:35:31.791Z,5.40
2024-04-25T05:37:58.803Z,5.40
2024-04-25T05:40:25.538Z,5.40
2024-04-25T05:42:52.507Z,5.40
2024-04-25T05:45:19.904Z,5.40
2024-04-25T05:47:46.828Z,5.40
2024-04-25T05:50:13.754Z,5.40
2024-04-25T05:52:40.884Z,5.50
2024-04-25T05:55:08.564Z,5.50
2024-04-25T05:57:35.347Z,5.60
2024-04-25T06:00:02.197Z,5.60
2024-04-25T06:02:29.358Z,5.70
2024-04-25T06:04:56.240Z,5.70
2024-04-25T06:07:23.007Z,5.70
2024-04-25T06:09:51.198Z,5.80
2024-04-25T06:12:18.426Z,5.80
2024-04-25T06:14:45.434Z,5.80
2024-04-25T06:17:12.968Z,5.90
2024-04-25T06:19:39.919Z,5.90
2024-04-25T06:22:06.793Z,5.90
2024-04-25T06:24:33.632Z,6.00
2024-04-25T06:27:00.395Z,6.00
2024-04-25T06:29:27.289Z,6.00
2024-04-25T06:31:54.265Z,6.00
2024-04-25T06:34:21.108Z,6.00
2024-04-25T06:36:48.410Z,6.10
2024-04-25T06:39:15.266Z,6.10
2024-04-25T06:41:50.628Z,6.20
2024-04-25T06:44:29.103Z,6.20
2024-04-25T06:47:01.204Z,6.30
2024-04-25T06:49:28.148Z,6.30
2024-04-25T06:51:55.015Z,6.30
2024-04-25T06:54:21.771Z,6.40
2024-04-25T06:56:48.602Z,6.40
2024-04-25T06:59:15.630Z,6.40
2024-04-25T07:01:42.589Z,6.40
2024-04-25T07:04:09.420Z,6.40
2024-04-25T07:06:36.287Z,6.40
2024-04-25T07:09:07.601Z,6.50
2024-04-25T07:11:37.314Z,6.50
2024-04-25T07:14:04.453Z,6.50
2024-04-25T07:16:31.279Z,6.50
2024-04-25T07:18:58.177Z,6.60
2024-04-25T07:21:28.298Z,6.70
2024-04-25T07:23:59.888Z,6.70
2024-04-25T07:26:28.026Z,6.70
2024-04-25T07:28:56.527Z,6.90
2024-04-25T07:31:23.589Z,7.00
2024-04-25T07:33:50.572Z,7.10
2024-04-25T07:36:24.083Z,7.10
2024-04-25T07:38:51.352Z,7.10
2024-04-25T07:41:18.435Z,7.10
2024-04-25T07:43:45.206Z,7.00
2024-04-25T07:46:12.925Z,7.10
2024-04-25T07:48:40.355Z,7.10
2024-04-25T07:51:07.311Z,7.20
2024-04-25T07:53:34.186Z,7.20
2024-04-25T07:56:01.124Z,7.20
2024-04-25T07:58:27.928Z,7.20
2024-04-25T08:00:54.782Z,7.30
2024-04-25T08:05:52.834Z,7.40
2024-04-25T08:08:23.729Z,7.50
2024-04-25T08:10:52.625Z,7.50
2024-04-25T08:13:19.495Z,7.60
2024-04-25T08:15:46.362Z,7.60
2024-04-25T08:18:13.367Z,7.60
2024-04-25T08:20:40.333Z,7.60
2024-04-25T08:23:07.147Z,7.60
2024-04-25T08:25:33.888Z,7.70
2024-04-25T08:28:00.685Z,7.60
2024-04-25T08:30:27.443Z,7.70
2024-04-25T08:32:55.498Z,7.70
2024-04-25T08:35:22.454Z,7.80
2024-04-25T08:37:49.231Z,7.90
2024-04-25T08:40:16.295Z,8.10
2024-04-25T08:42:45.140Z,8.30
2024-04-25T08:45:12.309Z,8.30
2024-04-25T08:47:42.180Z,8.20
2024-04-25T08:50:11.549Z,8.00
2024-04-25T08:52:41.760Z,7.90
2024-04-25T08:55:12.748Z,7.90
2024-04-25T08:57:39.686Z,7.90
2024-04-25T09:00:07.397Z,7.90
2024-04-25T09:02:37.009Z,7.90
2024-04-25T09:05:04.527Z,8.00
2024-04-25T09:07:31.471Z,8.10
2024-04-25T09:09:58.287Z,8.10
2024-04-25T09:12:28.117Z,8.20
2024-04-25T09:14:55.228Z,8.10
2024-04-25T09:17:22.883Z,8.20
2024-04-25T09:19:49.701Z,8.20
2024-04-25T09:22:17.613Z,8.20
2024-04-25T09:24:44.408Z,8.20
2024-04-25T09:27:11.367Z,8.30
2024-04-25T09:29:38.445Z,8.30
2024-04-25T09:32:06.336Z,8.30
2024-04-25T09:34:33.203Z,8.40
2024-04-25T09:37:01.212Z,8.40
2024-04-25T09:39:28.463Z,8.40
2024-04-25T09:41:55.680Z,8.50
2024-04-25T09:44:23.292Z,8.50
2024-04-25T09:47:02.688Z,8.50
2024-04-25T09:49:34.267Z,8.50
2024-04-25T09:52:18.794Z,8.50
2024-04-25T09:54:48.708Z,8.50
2024-04-25T09:57:20.717Z,8.60
2024-04-25T09:59:51.841Z,8.70
2024-04-25T10:02:20.814Z,8.70
2024-04-25T10:04:48.160Z,8.80
2024-04-25T10:07:16.746Z,9.00
2024-04-25T10:09:45.054Z,9.10
2024-04-25T10:12:11.938Z,9.10
2024-04-25T10:14:38.796Z,9.20
2024-04-25T10:17:06.063Z,9.10
2024-04-25T10:19:41.664Z,9.10
2024-04-25T10:22:08.508Z,9.10
2024-04-25T10:24:45.955Z,9.00
2024-04-25T10:27:15.407Z,9.00
2024-04-25T10:29:52.167Z,9.00
2024-04-25T10:32:19.939Z,9.00
2024-04-25T10:34:50.385Z,9.10
2024-04-25T10:37:17.146Z,9.20
2024-04-25T10:39:44.472Z,9.30
2024-04-25T10:42:18.838Z,9.40
2024-04-25T10:44:49.739Z,9.50
2024-04-25T10:47:17.943Z,9.50
2024-04-25T10:49:45.785Z,9.50
2024-04-25T10:52:13.453Z,9.60
2024-04-25T10:54:40.550Z,9.90
2024-04-25T10:57:07.509Z,10.00
2024-04-25T10:59:34.283Z,10.20
2024-04-25T11:02:05.137Z,10.40
2024-04-25T11:04:38.310Z,10.40
2024-04-25T11:07:07.237Z,10.50
2024-04-25T11:09:35.122Z,10.50
2024-04-25T11:12:02.029Z,10.50
2024-04-25T11:14:29.076Z,10.50
2024-04-25T11:16:56.072Z,10.60
2024-04-25T11:19:26.992Z,10.50
2024-04-25T11:21:55.000Z,10.50
2024-04-25T11:24:23.499Z,10.40
2024-04-25T11:26:51.319Z,10.40
2024-04-25T11:29:18.318Z,10.50
2024-04-25T11:31:46.032Z,10.50
2024-04-25T11:34:23.794Z,10.50
2024-04-25T11:37:01.864Z,10.60
2024-04-25T11:39:30.106Z,10.60
2024-04-25T11:41:58.440Z,10.60
2024-04-25T11:44:28.151Z,10.60
2024-04-25T11:46:55.179Z,10.60
2024-04-25T11:49:22.086Z,10.80
2024-04-25T11:51:51.104Z,10.90
2024-04-25T11:54:18.130Z,11.00
2024-04-25T11:56:45.044Z,11.20
2024-04-25T11:59:11.842Z,11.20
2024-04-25T12:01:38.753Z,11.20
2024-04-25T12:04:09.291Z,11.10
2024-04-25T12:06:36.265Z,11.00
2024-04-25T12:09:03.160Z,11.00
2024-04-25T12:11:30.733Z,11.20
2024-04-25T12:13:57.543Z,11.20
2024-04-25T12:16:24.330Z,11.30
2024-04-25T12:18:51.218Z,11.20
2024-04-25T12:21:18.038Z,11.10
2024-04-25T12:23:44.972Z,11.00
2024-04-25T12:26:11.854Z,11.00
2024-04-25T12:28:39.396Z,11.10
2024-04-25T12:31:08.865Z,11.10
2024-04-25T12:33:38.663Z,11.00
2024-04-25T12:36:05.876Z,11.00
2024-04-25T12:38:32.838Z,11.00
2024-04-25T12:41:00.100Z,11.10
2024-04-25T12:43:28.054Z,11.10
2024-04-25T12:45:55.108Z,11.10
2024-04-25T12:48:25.066Z,11.10
2024-04-25T12:50:52.054Z,11.20
2024-04-25T12:53:18.964Z,11.20
2024-04-25T12:55:46.393Z,11.30
2024-04-25T12:58:13.196Z,11.40
2024-04-25T13:00:42.645Z,11.40
2024-04-25T13:03:12.933Z,11.40
2024-04-25T13:05:39.902Z,11.50
2024-04-25T13:08:07.535Z,11.50
2024-04-25T13:10:34.334Z,11.50
2024-04-25T13:13:01.295Z,11.60
2024-04-25T13:15:30.154Z,11.60
2024-04-25T13:17:57.370Z,11.70
2024-04-25T13:20:24.686Z,11.90
2024-04-25T13:22:51.537Z,11.90
2024-04-25T13:25:18.369Z,11.90
2024-04-25T13:27:45.148Z,11.90
2024-04-25T13:30:12.130Z,11.80
2024-04-25T13:32:42.680Z,12.00
2024-04-25T13:35:10.318Z,12.10
2024-04-25T13:37:37.187Z,12.20
2024-04-25T13:40:04.237Z,12.30
2024-04-25T13:42:32.855Z,12.30
2024-04-25T13:45:01.987Z,12.40
2024-04-25T13:47:28.970Z,12.40
2024-04-25T13:49:56.197Z,12.40
2024-04-25T13:52:24.881Z,12.20
2024-04-25T13:54:51.744Z,12.30
2024-04-25T13:57:18.589Z,12.30
2024-04-25T13:59:46.295Z,12.40
2024-04-25T14:02:13.329Z,12.50
2024-04-25T14:04:40.161Z,12.50
2024-04-25T14:07:09.931Z,12.50
2024-04-25T14:09:43.742Z,12.60
2024-04-25T14:12:10.607Z,12.60
2024-04-25T14:14:37.528Z,12.50
2024-04-25T14:17:04.335Z,12.40
2024-04-25T14:19:31.152Z,12.50
2024-04-25T14:21:57.929Z,12.50
2024-04-25T14:24:24.900Z,12.50
2024-04-25T14:27:10.485Z,12.60
2024-04-25T14:29:39.628Z,12.50
2024-04-25T14:32:06.613Z,12.50
2024-04-25T14:34:34.538Z,12.50
2024-04-25T14:37:01.380Z,12.40
2024-04-25T14:39:28.330Z,12.50
2024-04-25T14:41:55.353Z,12.50
2024-04-25T14:44:22.207Z,12.50
2024-04-25T14:46:49.069Z,12.50
2024-04-25T14:49:15.974Z,12.50
2024-04-25T14:51:42.762Z,12.60
2024-04-25T14:54:09.725Z,12.60
2024-04-25T14:56:36.666Z,12.60
2024-04-25T14:59:06.460Z,12.60
2024-04-25T15:01:34.816Z,12.60
2024-04-25T15:04:05.635Z,12.60
2024-04-25T15:06:38.724Z,12.60
2024-04-25T15:09:05.551Z,12.60
2024-04-25T15:11:32.423Z,12.50
2024-04-25T15:13:59.264Z,12.50
2024-04-25T15:16:26.169Z,12.50
2024-04-25T15:18:53.117Z,12.60
2024-04-25T15:21:22.014Z,12.60
2024-04-25T15:23:49.191Z,12.60
2024-04-25T15:26:16.700Z,12.70
2024-04-25T15:28:43.607Z,12.60
2024-04-25T15:31:10.429Z,12.60
2024-04-25T15:33:37.324Z,12.60
2024-04-25T15:36:04.459Z,12.60
2024-04-25T15:38:32.113Z,12.70
2024-04-25T15:40:58.923Z,12.70
2024-04-25T15:43:25.763Z,12.70
2024-04-25T15:45:52.548Z,12.80
2024-04-25T15:48:19.549Z,12.80
2024-04-25T15:50:46.514Z,12.80
2024-04-25T15:53:13.394Z,12.80
2024-04-25T15:55:40.159Z,12.80
2024-04-25T15:58:06.994Z,12.80
2024-04-25T16:00:34.046Z,12.80
2024-04-25T16:03:03.686Z,12.70
2024-04-25T16:05:30.792Z,12.70
2024-04-25T16:08:00.628Z,12.80
2024-04-25T16:10:27.412Z,12.70
2024-04-25T16:12:54.207Z,12.70
2024-04-25T16:15:21.062Z,12.80
2024-04-25T16:17:47.911Z,12.90
2024-04-25T16:20:14.903Z,12.90
2024-04-25T16:22:41.834Z,12.90
2024-04-25T16:25:08.597Z,12.90
2024-04-25T16:27:35.400Z,12.90
2024-04-25T16:30:02.504Z,12.90
2024-04-25T16:32:29.357Z,12.90
2024-04-25T16:34:58.959Z,12.80
2024-04-25T16:37:27.433Z,12.80
2024-04-25T16:39:55.936Z,12.80
2024-04-25T16:42:22.712Z,12.70
2024-04-25T16:47:19.697Z,12.60
2024-04-25T16:49:46.502Z,12.50
2024-04-25T16:52:15.865Z,12.50
2024-04-25T16:54:42.686Z,12.50
2024-04-25T16:57:09.452Z,12.50
2024-04-25T16:59:37.342Z,12.60
2024-04-25T17:02:04.628Z,12.50
2024-04-25T17:04:32.451Z,12.60
2024-04-25T17:06:59.662Z,12.60
2024-04-25T17:09:28.595Z,12.60
2024-04-25T17:11:56.391Z,12.60
2024-04-25T17:14:25.019Z,12.60
2024-04-25T17:16:51.976Z,12.60
2024-04-25T17:19:18.864Z,12.50
2024-04-25T17:21:45.677Z,12.50
2024-04-25T17:24:13.609Z,12.50
2024-04-25T17:26:41.808Z,12.40
2024-04-25T17:29:09.279Z,12.40
2024-04-25T17:31:37.965Z,12.40
2024-04-25T17:34:05.471Z,12.40
2024-04-25T17:36:32.589Z,12.40
2024-04-25T17:38:59.596Z,12.40
2024-04-25T17:41:26.624Z,12.40
2024-04-25T17:43:53.546Z,12.40
2024-04-25T17:46:20.314Z,12.30
2024-04-25T17:48:47.281Z,12.20
2024-04-25T17:51:23.762Z,12.00
2024-04-25T17:53:50.806Z,12.00
2024-04-25T17:56:18.109Z,11.90
2024-04-25T17:58:46.054Z,11.90
2024-04-25T18:01:12.874Z,11.80
2024-04-25T18:03:39.886Z,11.80
2024-04-25T18:06:10.081Z,11.70
2024-04-25T18:08:36.918Z,11.60
2024-04-25T18:11:04.580Z,11.60
2024-04-25T18:13:31.421Z,11.50
2024-04-25T18:15:58.194Z,11.50
2024-04-25T18:18:25.217Z,11.40
2024-04-25T18:20:52.159Z,11.20
2024-04-25T18:23:19.088Z,11.20
2024-04-25T18:25:46.412Z,11.10
2024-04-25T18:28:13.363Z,11.10
2024-04-25T18:30:40.180Z,11.00
2024-04-25T18:33:07.079Z,10.90
2024-04-25T18:35:34.017Z,10.80
2024-04-25T18:38:01.226Z,10.60
2024-04-25T18:40:28.567Z,10.40
2024-04-25T18:42:55.461Z,10.30
2024-04-25T18:45:22.325Z,10.20
2024-04-25T18:47:49.242Z,10.20
2024-04-25T18:50:17.528Z,10.20
2024-04-25T18:52:46.420Z,10.10
2024-04-25T18:55:13.251Z,10.10
2024-04-25T18:57:40.222Z,10.10
2024-04-25T19:00:07.914Z,10.10
2024-04-25T19:02:35.327Z,10.10
2024-04-25T19:05:02.279Z,10.10
2024-04-25T19:07:29.087Z,10.00
2024-04-25T19:09:55.930Z,10.00
2024-04-25T19:12:22.810Z,9.90
2024-04-25T19:14:51.609Z,9.90
2024-04-25T19:17:18.463Z,9.90
2024-04-25T19:19:49.661Z,9.80
2024-04-25T19:22:17.154Z,9.70
2024-04-25T19:24:44.806Z,9.60
2024-04-25T19:27:11.763Z,9.50
2024-04-25T19:29:39.207Z,9.50
2024-04-25T19:32:06.276Z,9.50
2024-04-25T19:34:33.121Z,9.40
2024-04-25T19:37:00.529Z,9.40
2024-04-25T19:39:28.432Z,9.40
2024-04-25T19:41:58.127Z,9.30
2024-04-25T19:44:25.000Z,9.30
2024-04-25T19:46:51.937Z,9.20
2024-04-25T19:49:20.262Z,9.10
2024-04-25T19:51:48.243Z,9.00
2024-04-25T19:54:19.936Z,8.90
2024-04-25T19:56:48.813Z,8.90
2024-04-25T19:59:16.033Z,8.80
2024-04-25T20:01:52.530Z,8.80
2024-04-25T20:04:19.868Z,8.70
2024-04-25T20:06:46.645Z,8.70
2024-04-25T20:09:13.449Z,8.60
2024-04-25T20:11:40.627Z,8.60
2024-04-25T20:14:07.408Z,8.40
2024-04-25T20:16:34.410Z,8.30
2024-04-25T20:19:39.566Z,8.30
2024-04-25T20:22:06.487Z,8.20
2024-04-25T20:24:33.328Z,8.20
2024-04-25T20:27:02.782Z,8.10
2024-04-25T20:29:31.936Z,8.10
2024-04-25T20:31:59.001Z,8.10
2024-04-25T20:34:26.150Z,8.10
2024-04-25T20:36:53.174Z,8.10
2024-04-25T20:39:21.173Z,8.00
2024-04-25T20:41:48.030Z,8.00
2024-04-25T20:44:14.798Z,7.90
2024-04-25T20:46:41.596Z,7.90
2024-04-25T20:49:08.522Z,7.80
2024-04-25T20:51:40.943Z,7.80
2024-04-25T20:54:08.649Z,7.70
2024-04-25T20:56:40.385Z,7.60
2024-04-25T20:59:07.105Z,7.60
2024-04-25T21:01:37.939Z,7.50
2024-04-25T21:04:04.844Z,7.50
2024-04-25T21:06:31.613Z,7.50
2024-04-25T21:08:58.468Z,7.40
2024-04-25T21:11:25.499Z,7.30
2024-04-25T21:13:55.244Z,7.30
2024-04-25T21:16:29.195Z,7.20
2024-04-25T21:18:56.266Z,7.10
2024-04-25T21:21:23.153Z,7.10
2024-04-25T21:23:50.134Z,7.10
2024-04-25T21:26:17.094Z,7.10
2024-04-25T21:28:45.679Z,7.10
2024-04-25T21:31:12.432Z,7.10
2024-04-25T21:33:39.320Z,7.00
2024-04-25T21:36:07.095Z,6.90
2024-04-25T21:38:33.916Z,7.00
2024-04-25T21:41:00.708Z,6.90
2024-04-25T21:43:29.091Z,6.90
2024-04-25T21:45:55.858Z,6.90
2024-04-25T21:48:23.725Z,6.80
2024-04-25T21:50:51.665Z,6.80
2024-04-25T21:53:18.532Z,6.70
2024-04-25T21:55:45.340Z,6.70
2024-04-25T21:58:12.112Z,6.70
2024-04-25T22:00:39.188Z,6.70
2024-04-25T22:03:06.310Z,6.70
2024-04-25T22:05:33.166Z,6.60
2024-04-25T22:07:59.987Z,6.60
2024-04-25T22:10:26.828Z,6.60
2024-04-25T22:12:54.997Z,6.50
2024-04-25T22:15:22.865Z,6.50
2024-04-25T22:17:51.031Z,6.50
2024-04-25T22:20:18.135Z,6.40
2024-04-25T22:22:44.981Z,6.40
2024-04-25T22:25:12.866Z,6.40
2024-04-25T22:27:41.021Z,6.40
2024-04-25T22:30:09.410Z,6.40
2024-04-25T22:32:36.891Z,6.50
2024-04-25T22:35:04.121Z,6.50
2024-04-25T22:37:31.033Z,6.50
2024-04-25T22:39:57.826Z,6.60
2024-04-25T22:42:24.616Z,6.60
2024-04-25T22:44:54.235Z,6.60
2024-04-25T22:47:23.504Z,6.70
2024-04-25T22:49:50.335Z,6.60
2024-04-25T22:52:17.331Z,6.60
2024-04-25T22:54:44.232Z,6.60
2024-04-25T22:57:11.041Z,6.60
2024-04-25T22:59:37.867Z,6.60
2024-04-25T23:02:04.805Z,6.60
2024-04-25T23:04:31.616Z,6.60
2024-04-25T23:06:58.358Z,6.60
2024-04-25T23:09:26.458Z,6.50
2024-04-25T23:11:53.808Z,6.50
2024-04-25T23:14:20.661Z,6.40
2024-04-25T23:16:47.494Z,6.40
2024-04-25T23:19:14.273Z,6.30
2024-04-25T23:21:41.221Z,6.30
2024-04-25T23:24:08.326Z,6.20
2024-04-25T23:26:38.398Z,6.20
2024-04-25T23:29:05.836Z,6.20
2024-04-25T23:31:32.993Z,6.20
2024-04-25T23:33:59.966Z,6.20
2024-04-25T23:36:26.815Z,6.20
2024-04-25T23:38:53.781Z,6.10
2024-04-25T23:41:21.182Z,6.10
2024-04-25T23:43:48.310Z,6.00
2024-04-25T23:46:15.134Z,6.00
2024-04-25T23:48:41.973Z,6.00
2024-04-25T23:51:09.880Z,6.00
2024-04-25T23:53:36.880Z,5.90
2024-04-25T23:56:03.776Z,5.90
2024-04-25T23:58:30.578Z,5.90
